Time;durP1;ratioP1;P1;durP2;ratioP2;P2;SDS_P1;SDS_P2;PMS_P1;PMS_P2;Temp;Humidity;BMP_temperature;BMP_pressure;BME280_temperature;BME280_humidity;BME280_pressure;Samples;Min_cycle;Max_cycle;Signal;HPM_P1;HPM_P2
2022/08/02 00:01:16;;;;;;;7.15;4.97;;;21.00;99.90;;;;;;10607273;27;20737;-90
2022/08/02 00:06:19;;;;;;;6.22;4.70;;;20.90;99.90;;;;;;10626116;27;20192;-91
2022/08/02 00:11:22;;;;;;;7.78;4.57;;;21.00;99.90;;;;;;10625846;27;20216;-91
2022/08/02 00:16:24;;;;;;;4.95;4.57;;;21.10;99.90;;;;;;10607311;27;20225;-90
2022/08/02 00:21:39;;;;;;;4.88;4.47;;;20.70;99.90;;;;;;10609233;27;20188;-90
2022/08/02 00:26:42;;;;;;;4.60;4.20;;;20.80;99.90;;;;;;10606168;27;20200;-90
2022/08/02 00:31:44;;;;;;;4.93;4.28;;;20.90;99.90;;;;;;10606005;27;20228;-90
2022/08/02 00:36:47;;;;;;;4.30;4.00;;;20.90;99.90;;;;;;10606021;27;20200;-90
2022/08/02 00:41:52;;;;;;;4.90;4.30;;;20.90;99.90;;;;;;10606002;27;20204;-91
2022/08/02 00:46:54;;;;;;;8.35;4.70;;;21.00;99.90;;;;;;10624427;27;20736;-90
2022/08/02 00:51:57;;;;;;;4.45;4.07;;;20.90;99.90;;;;;;10624654;27;20216;-89
2022/08/02 00:56:59;;;;;;;5.90;5.00;;;20.80;99.90;;;;;;10605826;27;20242;-90
2022/08/02 01:02:01;;;;;;;4.40;4.10;;;20.90;99.90;;;;;;10623884;27;20610;-90
2022/08/02 01:07:05;;;;;;;4.78;4.38;;;21.00;99.90;;;;;;10605300;27;20730;-90
2022/08/02 01:12:15;;;;;;;4.18;3.88;;;21.10;99.90;;;;;;10623715;27;20218;-90
2022/08/02 01:17:37;;;;;;;4.65;4.28;;;21.00;99.90;;;;;;10623890;27;20193;-90
2022/08/02 01:23:16;;;;;;;4.45;4.15;;;21.00;99.90;;;;;;10605031;27;20261;-90
2022/08/02 01:28:24;;;;;;;4.35;4.05;;;21.00;99.90;;;;;;10583921;28;20204;-90
2022/08/02 01:33:37;;;;;;;4.65;4.35;;;20.90;99.90;;;;;;10604309;28;20228;-90
2022/08/02 01:38:45;;;;;;;4.50;4.20;;;21.10;99.90;;;;;;10624368;27;20252;-89
2022/08/02 01:43:52;;;;;;;4.28;3.97;;;21.10;99.90;;;;;;10613465;27;20257;-90
2022/08/02 01:48:56;;;;;;;4.80;4.40;;;21.10;99.90;;;;;;10612705;27;20260;-91
2022/08/02 01:54:00;;;;;;;5.55;4.60;;;21.00;99.90;;;;;;10613067;27;20216;-90
2022/08/02 01:59:07;;;;;;;4.70;4.30;;;21.00;99.90;;;;;;10595656;27;20200;-91
2022/08/02 02:04:10;;;;;;;4.95;4.55;;;21.10;99.90;;;;;;10612415;27;20192;-90
2022/08/02 02:09:14;;;;;;;4.50;4.20;;;21.10;99.90;;;;;;10595142;27;20196;-90
2022/08/02 02:14:18;;;;;;;5.18;4.78;;;21.00;99.90;;;;;;10630244;27;20245;-89
2022/08/02 02:19:22;;;;;;;4.80;4.43;;;21.00;99.90;;;;;;10630278;27;20197;-90
2022/08/02 02:24:25;;;;;;;5.13;4.65;;;21.00;99.90;;;;;;10630009;27;20241;-91
2022/08/02 02:29:30;;;;;;;4.38;4.07;;;20.90;99.90;;;;;;10629663;27;20193;-90
2022/08/02 02:34:36;;;;;;;4.63;4.25;;;21.00;99.90;;;;;;10628044;27;20216;-90
2022/08/02 02:39:41;;;;;;;5.35;4.88;;;21.10;99.90;;;;;;10608007;28;20204;-90
2022/08/02 02:44:46;;;;;;;5.50;5.10;;;21.10;99.90;;;;;;10607769;28;20570;-90
2022/08/02 02:49:51;;;;;;;4.18;3.88;;;21.00;99.90;;;;;;10626265;27;20220;-89
2022/08/02 02:54:55;;;;;;;4.30;4.00;;;21.10;99.90;;;;;;10626315;28;20245;-90
2022/08/02 02:59:58;;;;;;;5.20;4.80;;;20.60;99.90;;;;;;10607930;28;20256;-90
2022/08/02 03:05:02;;;;;;;4.53;4.10;;;20.80;99.90;;;;;;10626087;28;20192;-90
2022/08/02 03:10:06;;;;;;;4.47;4.07;;;20.90;99.90;;;;;;10606945;28;20297;-90
2022/08/02 03:15:12;;;;;;;4.82;4.43;;;21.00;99.90;;;;;;10607603;28;20233;-89
2022/08/02 03:20:17;;;;;;;4.93;4.53;;;21.10;99.90;;;;;;10625679;28;20204;-90
2022/08/02 03:25:19;;;;;;;4.60;4.25;;;21.00;99.90;;;;;;10606821;28;20200;-90
2022/08/02 03:30:25;;;;;;;5.35;4.50;;;21.10;99.90;;;;;;10625148;28;20212;-90
2022/08/02 03:35:28;;;;;;;4.68;4.32;;;20.90;99.90;;;;;;10560763;27;1343978;-89
2022/08/02 03:40:31;;;;;;;5.45;5.05;;;20.90;99.90;;;;;;10608808;27;20677;-91
2022/08/02 03:45:35;;;;;;;4.55;4.15;;;20.90;99.90;;;;;;10626955;27;20208;-89
2022/08/02 03:50:38;;;;;;;4.22;3.92;;;20.90;99.90;;;;;;10608926;27;20216;-90
2022/08/02 03:55:41;;;;;;;4.32;4.03;;;20.80;99.90;;;;;;10607339;27;20201;-91
2022/08/02 04:00:44;;;;;;;4.85;4.43;;;20.70;99.90;;;;;;10606495;27;20212;-90
2022/08/02 04:05:47;;;;;;;4.90;4.53;;;20.60;99.90;;;;;;10607761;27;20669;-90
2022/08/02 04:16:49;;;;;;;3.97;3.67;;;20.80;99.90;;;;;;10625820;27;20192;-90
2022/08/02 04:21:53;;;;;;;4.85;4.45;;;21.00;99.90;;;;;;10607072;27;20188;-90
2022/08/02 04:26:58;;;;;;;4.78;4.18;;;21.10;99.90;;;;;;10607516;27;20196;-91
2022/08/02 04:32:08;;;;;;;4.90;4.50;;;20.90;99.90;;;;;;10605724;27;20277;-90
2022/08/02 04:37:12;;;;;;;4.78;4.38;;;21.00;99.90;;;;;;10606559;27;20246;-90
2022/08/02 04:42:23;;;;;;;4.78;4.25;;;21.00;99.90;;;;;;10624426;27;20218;-90
2022/08/02 04:47:25;;;;;;;4.45;4.15;;;21.00;99.90;;;;;;10601799;27;20200;-90
2022/08/02 04:52:48;;;;;;;4.72;4.32;;;21.10;99.90;;;;;;10624324;27;20627;-90
2022/08/02 04:57:53;;;;;;;4.47;4.18;;;20.70;99.90;;;;;;10605081;27;20234;-91
2022/08/02 05:02:56;;;;;;;4.47;4.13;;;20.40;99.90;;;;;;10604906;27;20200;-91
2022/08/02 05:08:00;;;;;;;5.25;4.75;;;20.50;99.90;;;;;;10605651;27;20229;-90
2022/08/02 05:13:04;;;;;;;4.60;4.28;;;20.40;99.90;;;;;;10623728;27;20264;-89
2022/08/02 05:18:06;;;;;;;5.00;4.38;;;20.70;99.90;;;;;;10605231;27;20257;-90
2022/08/02 05:23:09;;;;;;;7.57;5.38;;;20.70;99.90;;;;;;10605049;27;20248;-90
2022/08/02 05:28:12;;;;;;;4.07;3.78;;;20.60;99.90;;;;;;10605118;28;20564;-90
2022/08/02 05:33:14;;;;;;;5.05;4.60;;;20.80;99.90;;;;;;10622829;28;20253;-90
2022/08/02 05:38:16;;;;;;;4.90;4.50;;;20.90;99.90;;;;;;10605371;28;20562;-90
2022/08/02 05:43:27;;;;;;;8.23;4.10;;;20.90;99.90;;;;;;10623643;28;20192;-90
2022/08/02 05:48:29;;;;;;;4.20;3.90;;;21.00;99.90;;;;;;10603926;28;20208;-90
2022/08/02 05:53:36;;;;;;;5.00;4.50;;;21.10;99.90;;;;;;10623122;28;20216;-90
2022/08/02 05:58:49;;;;;;;4.82;4.43;;;20.90;99.90;;;;;;10622896;28;20221;-90
2022/08/02 06:03:56;;;;;;;6.43;4.25;;;20.80;99.90;;;;;;10622650;28;20200;-90
2022/08/02 06:09:08;;;;;;;4.78;4.40;;;20.60;99.90;;;;;;10604599;28;20242;-90
2022/08/02 06:14:12;;;;;;;4.10;3.80;;;20.70;99.90;;;;;;10603958;28;20236;-90
2022/08/02 06:19:16;;;;;;;5.00;4.50;;;20.50;99.90;;;;;;10624260;28;20559;-90
2022/08/02 06:24:19;;;;;;;5.38;4.75;;;20.30;99.90;;;;;;10605354;27;20192;-90
2022/08/02 06:29:23;;;;;;;4.65;3.90;;;20.50;99.90;;;;;;10637390;27;20200;-90
2022/08/02 06:34:25;;;;;;;4.50;3.40;;;20.50;99.90;;;;;;10619894;27;20295;-90
2022/08/02 06:39:42;;;;;;;5.35;3.90;;;20.50;99.90;;;;;;10624992;27;20212;-90
2022/08/02 06:44:44;;;;;;;12.18;3.88;;;20.70;99.90;;;;;;10648729;27;20217;-89
2022/08/02 06:49:51;;;;;;;4.15;3.50;;;20.70;99.90;;;;;;10623713;27;20200;-90
2022/08/02 06:54:57;;;;;;;5.45;4.38;;;20.70;99.90;;;;;;10626105;27;20216;-90
2022/08/02 07:00:01;;;;;;;5.07;3.38;;;20.80;99.90;;;;;;10623144;27;20204;-89
2022/08/02 07:05:04;;;;;;;5.53;3.88;;;20.70;99.90;;;;;;10643407;27;20307;-90
2022/08/02 07:10:07;;;;;;;5.68;3.30;;;20.90;99.90;;;;;;10624465;27;20572;-88
2022/08/02 07:15:11;;;;;;;5.40;2.67;;;20.90;99.90;;;;;;10636203;27;20220;-89
2022/08/02 07:20:14;;;;;;;5.18;3.53;;;21.10;99.90;;;;;;10621278;27;20238;-90
2022/08/02 07:25:17;;;;;;;3.80;3.50;;;21.10;99.90;;;;;;10630760;27;20204;-90
2022/08/02 07:30:19;;;;;;;4.22;3.92;;;21.30;99.90;;;;;;10633855;27;20200;-90
2022/08/02 07:35:22;;;;;;;8.45;2.70;;;21.40;99.90;;;;;;10607983;27;20258;-89
2022/08/02 07:40:27;;;;;;;4.50;2.30;;;21.30;99.90;;;;;;10609032;27;20587;-90
2022/08/02 07:45:32;;;;;;;3.92;3.55;;;21.40;99.90;;;;;;10608987;27;20226;-90
2022/08/02 07:50:47;;;;;;;6.85;3.53;;;21.50;99.90;;;;;;10607863;27;20199;-90
2022/08/02 07:55:50;;;;;;;4.80;3.72;;;21.50;99.90;;;;;;10626815;27;20196;-89
2022/08/02 08:00:53;;;;;;;3.10;2.47;;;21.50;99.90;;;;;;10608532;27;20249;-90
2022/08/02 08:05:56;;;;;;;4.20;2.33;;;21.50;99.90;;;;;;10591617;27;20573;-90
2022/08/02 08:10:58;;;;;;;3.58;3.28;;;21.70;99.90;;;;;;10628104;27;20547;-91
2022/08/02 08:16:01;;;;;;;4.53;2.55;;;21.70;99.90;;;;;;10626376;27;20607;-90
2022/08/02 08:21:03;;;;;;;4.20;3.33;;;21.70;99.90;;;;;;10625936;27;20561;-90
2022/08/02 08:26:06;;;;;;;4.72;3.70;;;21.70;99.90;;;;;;10609771;27;20265;-88
2022/08/02 08:31:14;;;;;;;5.55;3.60;;;21.70;99.90;;;;;;10625355;27;20245;-89
2022/08/02 08:36:16;;;;;;;5.20;1.98;;;21.90;99.90;;;;;;10606914;27;20238;-90
2022/08/02 08:41:19;;;;;;;3.88;3.38;;;21.90;99.90;;;;;;10624974;27;20192;-90
2022/08/02 08:46:30;;;;;;;3.28;3.00;;;22.00;99.90;;;;;;10588945;27;20208;-90
2022/08/02 08:51:39;;;;;;;4.25;3.90;;;22.00;99.90;;;;;;10624064;27;20212;-89
2022/08/02 08:56:43;;;;;;;2.63;2.40;;;21.90;99.90;;;;;;10606263;27;20253;-90
2022/08/02 09:01:48;;;;;;;3.63;3.30;;;22.00;99.90;;;;;;10605817;27;20196;-90
2022/08/02 09:06:52;;;;;;;5.72;3.10;;;22.00;99.90;;;;;;10606543;27;20237;-90
2022/08/02 09:12:12;;;;;;;3.40;3.17;;;22.10;99.90;;;;;;10588632;27;20277;-90
2022/08/02 09:17:16;;;;;;;4.22;3.83;;;22.10;99.90;;;;;;10623894;27;20196;-90
2022/08/02 09:22:19;;;;;;;2.92;2.47;;;22.20;99.90;;;;;;10604891;27;20628;-90
2022/08/02 09:27:21;;;;;;;3.72;2.55;;;22.20;99.90;;;;;;10623670;27;20563;-90
2022/08/02 09:32:28;;;;;;;2.95;1.95;;;22.30;99.90;;;;;;10623261;28;20569;-90
2022/08/02 09:37:30;;;;;;;3.58;3.28;;;22.60;99.90;;;;;;10605375;28;20193;-89
2022/08/02 09:42:33;;;;;;;2.70;2.47;;;22.60;99.90;;;;;;10606531;28;20229;-91
2022/08/02 09:47:35;;;;;;;6.15;1.83;;;22.80;99.90;;;;;;10605978;28;20245;-90
2022/08/02 09:52:42;;;;;;;3.90;2.03;;;23.00;99.90;;;;;;10606054;28;20216;-89
2022/08/02 09:57:45;;;;;;;2.80;2.60;;;22.90;99.90;;;;;;10623230;28;20188;-90
2022/08/02 10:03:11;;;;;;;3.00;2.80;;;22.90;99.90;;;;;;10629574;27;20188;-90
2022/08/02 10:08:25;;;;;;;3.20;3.00;;;22.80;99.90;;;;;;10612701;27;20249;-91
2022/08/02 10:13:33;;;;;;;5.10;1.58;;;22.80;99.90;;;;;;10630902;27;20212;-90
2022/08/02 10:18:36;;;;;;;3.67;3.38;;;22.80;99.90;;;;;;10612670;27;20241;-90
2022/08/02 10:23:43;;;;;;;2.85;1.85;;;22.90;99.90;;;;;;10631181;27;20200;-90
2022/08/02 10:28:48;;;;;;;3.50;1.30;;;22.90;99.90;;;;;;10612108;27;20225;-90
2022/08/02 10:33:52;;;;;;;5.55;2.10;;;23.00;99.90;;;;;;10593888;27;20639;-89
2022/08/02 10:38:57;;;;;;;2.78;2.38;;;23.20;99.90;;;;;;10629751;27;20217;-90
2022/08/02 10:44:00;;;;;;;2.88;1.90;;;23.30;99.90;;;;;;10610955;27;20753;-90
2022/08/02 10:49:02;;;;;;;3.40;3.10;;;23.10;99.90;;;;;;10629645;27;20603;-89
2022/08/02 10:54:39;;;;;;;2.92;2.63;;;23.20;99.90;;;;;;10629343;27;20216;-89
2022/08/02 10:59:41;;;;;;;4.40;3.03;;;23.40;99.90;;;;;;10629148;27;20221;-90
2022/08/02 11:04:44;;;;;;;2.85;1.50;;;23.10;99.90;;;;;;10628761;27;20200;-89
2022/08/02 11:09:49;;;;;;;4.05;3.65;;;23.10;99.90;;;;;;10628908;27;20238;-90
2022/08/02 11:15:02;;;;;;;4.07;1.92;;;23.10;99.90;;;;;;10628341;27;20216;-90
2022/08/02 11:20:12;;;;;;;5.22;1.83;;;23.60;99.90;;;;;;10610795;27;20192;-90
2022/08/02 11:25:23;;;;;;;3.70;1.65;;;23.90;99.90;;;;;;10609873;27;20200;-90
2022/08/02 11:30:26;;;;;;;5.10;2.30;;;24.10;99.90;;;;;;10609601;27;20226;-90
2022/08/02 11:35:38;;;;;;;3.58;2.80;;;24.00;99.90;;;;;;10609305;27;20772;-90
2022/08/02 11:40:41;;;;;;;2.70;1.70;;;24.30;99.90;;;;;;10627670;27;20180;-89
2022/08/02 11:45:44;;;;;;;1.90;1.45;;;24.40;99.90;;;;;;10591895;27;20212;-89
2022/08/02 11:50:46;;;;;;;3.35;2.83;;;24.00;99.90;;;;;;10627259;27;20188;-89
2022/08/02 11:55:55;;;;;;;3.13;2.83;;;24.00;99.90;;;;;;10608503;27;20228;-90
2022/08/02 12:00:58;;;;;;;3.70;2.30;;;24.00;99.90;;;;;;10627051;27;20221;-90
2022/08/02 12:06:01;;;;;;;2.67;2.47;;;23.80;99.90;;;;;;10607708;27;20200;-90
2022/08/02 12:11:20;;;;;;;5.13;1.60;;;24.10;99.90;;;;;;10626215;27;20196;-90
2022/08/02 12:21:46;;;;;;;7.07;2.72;;;24.40;99.90;;;;;;10625090;27;20188;-90
2022/08/02 12:26:48;;;;;;;5.13;1.60;;;24.50;99.90;;;;;;10625929;27;20184;-90
2022/08/02 12:31:51;;;;;;;3.13;1.30;;;24.70;99.90;;;;;;10606412;27;20340;-89
2022/08/02 12:37:00;;;;;;;3.30;3.00;;;24.50;99.90;;;;;;10625332;27;20605;-90
2022/08/02 12:42:04;;;;;;;2.50;1.90;;;24.20;99.90;;;;;;10606260;27;20208;-89
2022/08/02 12:47:08;;;;;;;3.33;1.42;;;24.20;99.90;;;;;;10624594;27;20196;-89
2022/08/02 12:52:21;;;;;;;3.22;1.55;;;24.50;99.90;;;;;;10624578;27;20212;-90
2022/08/02 12:57:24;;;;;;;3.17;2.88;;;24.90;99.90;;;;;;10606478;27;20236;-90
2022/08/02 13:02:26;;;;;;;2.67;1.70;;;24.70;99.90;;;;;;10624785;27;20589;-90
2022/08/02 13:07:29;;;;;;;7.25;1.98;;;24.20;99.90;;;;;;10624260;27;20236;-89
2022/08/02 13:12:33;;;;;;;5.40;1.92;;;24.10;99.90;;;;;;10605803;27;20241;-89
2022/08/02 13:17:36;;;;;;;4.68;2.08;;;24.30;99.90;;;;;;10604741;27;20208;-89
2022/08/02 13:22:39;;;;;;;5.60;1.70;;;24.70;99.90;;;;;;10605665;27;20253;-90
2022/08/02 13:27:54;;;;;;;3.20;1.50;;;25.30;99.90;;;;;;10605023;27;20196;-89
2022/08/02 13:32:57;;;;;;;3.83;1.60;;;25.70;99.90;;;;;;10605753;27;20232;-89
2022/08/02 13:38:03;;;;;;;2.55;1.55;;;25.70;99.90;;;;;;10632430;27;20192;-90
2022/08/02 13:43:05;;;;;;;2.20;1.50;;;25.70;99.90;;;;;;10613867;27;20222;-89
2022/08/02 13:48:08;;;;;;;3.20;2.25;;;25.80;99.90;;;;;;10613661;27;20238;-90
2022/08/02 13:53:19;;;;;;;6.93;1.50;;;25.10;99.90;;;;;;10632144;27;20619;-90
2022/08/02 13:58:22;;;;;;;2.55;2.17;;;25.70;99.90;;;;;;10612703;27;20225;-89
2022/08/02 14:03:24;;;;;;;3.10;2.90;;;25.60;99.90;;;;;;10631662;27;20252;-89
2022/08/02 14:08:47;;;;;;;4.18;2.13;;;25.20;99.90;;;;;;10613103;27;20260;-90
2022/08/02 14:13:50;;;;;;;2.20;1.80;;;24.80;99.90;;;;;;10631172;27;20220;-89
2022/08/02 14:18:52;;;;;;;4.50;2.50;;;25.00;99.90;;;;;;10612537;27;20204;-90
2022/08/02 14:23:55;;;;;;;2.25;2.13;;;25.00;99.90;;;;;;10612389;27;20201;-89
2022/08/02 14:28:57;;;;;;;4.35;3.00;;;25.30;99.90;;;;;;10630219;27;20226;-90
2022/08/02 14:34:00;;;;;;;3.53;3.05;;;25.10;99.90;;;;;;10611655;27;20331;-89
2022/08/02 14:39:02;;;;;;;3.28;2.42;;;24.70;99.90;;;;;;10612255;27;20189;-89
2022/08/02 14:44:06;;;;;;;2.58;2.35;;;25.10;99.90;;;;;;10610923;27;20542;-89
2022/08/02 14:49:09;;;;;;;3.17;2.25;;;25.10;99.90;;;;;;10628582;27;20196;-90
2022/08/02 14:54:15;;;;;;;4.30;2.92;;;24.90;99.90;;;;;;10629516;27;20257;-89
2022/08/02 14:59:19;;;;;;;3.08;2.22;;;25.30;99.90;;;;;;10611197;27;20185;-90
2022/08/02 15:04:22;;;;;;;3.13;2.83;;;25.10;99.90;;;;;;10610576;27;20200;-89
2022/08/02 15:09:25;;;;;;;8.35;2.70;;;25.30;99.90;;;;;;10609551;27;20200;-90
2022/08/02 15:14:27;;;;;;;5.07;3.50;;;25.10;99.90;;;;;;10628305;27;20242;-90
2022/08/02 15:19:30;;;;;;;3.22;2.92;;;25.10;99.90;;;;;;10628118;27;20229;-90
2022/08/02 15:24:52;;;;;;;2.80;2.60;;;24.80;99.90;;;;;;10609081;27;20256;-90
2022/08/02 15:29:58;;;;;;;8.90;1.73;;;24.30;99.90;;;;;;10627954;27;20605;-89
2022/08/02 15:35:02;;;;;;;3.03;1.58;;;24.40;99.90;;;;;;10627499;27;20216;-89
2022/08/02 15:40:05;;;;;;;2.17;1.98;;;24.70;99.90;;;;;;10591703;27;20196;-89
2022/08/02 15:45:08;;;;;;;3.28;1.38;;;25.10;99.90;;;;;;10608210;27;20249;-88
2022/08/02 15:50:17;;;;;;;2.75;2.22;;;25.10;99.90;;;;;;10608487;27;20201;-89
2022/08/02 15:55:20;;;;;;;3.40;2.45;;;24.70;99.90;;;;;;10626751;27;20216;-89
2022/08/02 16:00:22;;;;;;;4.78;1.77;;;24.40;99.90;;;;;;10607254;27;20222;-89
2022/08/02 16:05:25;;;;;;;3.58;1.70;;;24.40;99.90;;;;;;10626280;27;20245;-89
2022/08/02 16:10:27;;;;;;;4.40;1.80;;;24.40;99.90;;;;;;10626050;27;20733;-90
2022/08/02 16:15:30;;;;;;;4.95;1.83;;;24.30;99.90;;;;;;10625773;27;20212;-90
2022/08/02 16:20:32;;;;;;;3.13;2.08;;;24.10;99.90;;;;;;10626430;27;20237;-90
2022/08/02 16:25:37;;;;;;;1.60;1.40;;;24.00;99.90;;;;;;10606911;27;20226;-90
2022/08/02 16:30:43;;;;;;;18.85;4.22;;;24.20;99.90;;;;;;10590709;27;20556;-89
2022/08/02 16:36:05;;;;;;;7.20;2.30;;;24.40;99.90;;;;;;10625041;27;20623;-89
2022/08/02 16:41:09;;;;;;;5.20;2.33;;;24.40;99.90;;;;;;10624999;27;20188;-89
2022/08/02 16:46:12;;;;;;;2.00;1.77;;;24.20;99.90;;;;;;10606770;27;20208;-89
2022/08/02 16:51:14;;;;;;;4.00;2.55;;;24.30;99.90;;;;;;10606669;27;20221;-90
2022/08/02 16:56:16;;;;;;;5.63;2.55;;;24.20;99.90;;;;;;10624148;27;20285;-89
2022/08/02 17:01:20;;;;;;;3.78;2.08;;;23.90;99.90;;;;;;10624049;27;20192;-89
2022/08/02 17:06:28;;;;;;;4.20;2.10;;;24.00;99.90;;;;;;10624207;27;20200;-89
2022/08/02 17:11:31;;;;;;;3.85;2.00;;;24.10;99.90;;;;;;10605464;27;20192;-89
2022/08/02 17:16:34;;;;;;;3.15;2.42;;;24.20;99.90;;;;;;10604664;27;20242;-90
2022/08/02 17:21:37;;;;;;;2.28;2.00;;;24.20;99.90;;;;;;10604659;27;20544;-89
2022/08/02 17:26:40;;;;;;;9.27;2.25;;;24.00;99.90;;;;;;10623605;27;20192;-89
2022/08/02 17:31:45;;;;;;;3.00;2.80;;;23.80;99.90;;;;;;10604517;27;20282;-90
2022/08/02 17:37:07;;;;;;;4.63;2.53;;;23.50;99.90;;;;;;10590406;28;20232;-89
2022/08/02 17:42:10;;;;;;;5.82;2.03;;;23.30;99.90;;;;;;10623350;28;20241;-89
2022/08/02 17:47:21;;;;;;;2.80;2.60;;;23.10;99.90;;;;;;10623088;28;20192;-89
2022/08/02 17:52:32;;;;;;;15.45;3.28;;;22.90;99.90;;;;;;10604283;28;20257;-90
2022/08/02 17:57:54;;;;;;;2.55;2.35;;;22.70;99.90;;;;;;10622957;28;20213;-89
2022/08/02 18:03:02;;;;;;;4.18;2.60;;;22.60;99.90;;;;;;10604153;28;20616;-89
2022/08/02 18:08:08;;;;;;;4.13;2.63;;;22.40;99.90;;;;;;10587683;28;20196;-89
2022/08/02 18:13:15;;;;;;;3.67;2.70;;;22.10;99.90;;;;;;10603968;28;20216;-90
2022/08/02 18:18:17;;;;;;;3.63;3.33;;;22.00;99.90;;;;;;10622321;28;20197;-90
2022/08/02 18:23:31;;;;;;;3.72;2.72;;;22.00;99.90;;;;;;10610235;27;20200;-89
2022/08/02 18:28:39;;;;;;;3.63;2.80;;;21.90;99.90;;;;;;10630312;27;20197;-90
2022/08/02 18:33:42;;;;;;;2.78;2.58;;;21.80;99.90;;;;;;10612029;27;20224;-89
2022/08/02 18:39:03;;;;;;;2.85;2.65;;;21.80;99.90;;;;;;10629901;27;20292;-90
2022/08/02 18:44:09;;;;;;;3.05;2.85;;;21.60;99.90;;;;;;10615260;27;20200;-90
2022/08/02 18:49:17;;;;;;;2.80;2.60;;;21.60;99.90;;;;;;10629488;27;20668;-90
2022/08/02 18:54:19;;;;;;;2.95;2.75;;;21.50;99.90;;;;;;10629444;27;20220;-89
2022/08/02 18:59:32;;;;;;;3.10;2.90;;;21.50;99.90;;;;;;10610207;27;20261;-89
2022/08/02 19:04:42;;;;;;;2.63;2.42;;;21.50;99.90;;;;;;10611318;27;20218;-89
2022/08/02 19:09:48;;;;;;;3.08;2.78;;;21.50;99.90;;;;;;10610294;27;20266;-89
2022/08/02 19:14:50;;;;;;;2.80;2.60;;;21.40;99.90;;;;;;10628482;27;20220;-90
2022/08/02 19:19:53;;;;;;;2.80;2.60;;;21.40;99.90;;;;;;10628079;27;20196;-89
2022/08/02 19:24:57;;;;;;;3.10;2.78;;;21.40;99.90;;;;;;10628623;27;20249;-89
2022/08/02 19:30:04;;;;;;;2.65;2.45;;;21.40;99.90;;;;;;10609682;27;20201;-89
2022/08/02 19:35:11;;;;;;;3.17;2.97;;;21.30;99.90;;;;;;10592859;27;20764;-89
2022/08/02 19:40:31;;;;;;;2.53;2.33;;;21.40;99.90;;;;;;10594588;27;20249;-89
2022/08/02 19:45:34;;;;;;;3.53;3.20;;;21.30;99.90;;;;;;10627111;27;20554;-90
2022/08/02 19:50:54;;;;;;;2.90;2.70;;;21.20;99.90;;;;;;10611806;27;20192;-90
2022/08/02 19:56:00;;;;;;;2.88;2.67;;;21.20;99.90;;;;;;10609563;27;20257;-90
2022/08/02 20:01:06;;;;;;;2.65;2.45;;;21.20;99.90;;;;;;10627070;27;20599;-90
2022/08/02 20:06:15;;;;;;;2.70;2.50;;;21.20;99.90;;;;;;10609358;27;20685;-90
2022/08/02 20:11:19;;;;;;;3.33;3.03;;;21.20;99.90;;;;;;10608128;27;20237;-90
2022/08/02 20:16:24;;;;;;;3.00;2.78;;;21.20;99.90;;;;;;10608124;27;20212;-90
2022/08/02 20:21:34;;;;;;;3.47;3.22;;;21.10;99.90;;;;;;10607353;27;20192;-90
2022/08/02 20:26:43;;;;;;;3.10;2.90;;;21.20;99.90;;;;;;10608974;27;20200;-89
2022/08/02 20:31:50;;;;;;;2.72;2.53;;;21.10;99.90;;;;;;10625515;27;20224;-89
2022/08/02 20:36:52;;;;;;;3.05;2.85;;;21.20;99.90;;;;;;10607187;27;20323;-89
2022/08/02 20:41:55;;;;;;;3.45;3.15;;;21.10;99.90;;;;;;10606960;27;20192;-90
2022/08/02 20:47:00;;;;;;;3.90;2.60;;;21.10;99.90;;;;;;10624272;27;20562;-89
2022/08/02 20:52:03;;;;;;;2.95;2.75;;;21.10;99.90;;;;;;10605727;27;20204;-90
2022/08/02 20:57:25;;;;;;;2.83;2.63;;;21.10;99.90;;;;;;10624689;27;20216;-90
2022/08/02 21:02:48;;;;;;;2.83;2.63;;;21.10;99.90;;;;;;10591622;27;20692;-90
2022/08/02 21:07:50;;;;;;;3.03;2.83;;;21.00;99.90;;;;;;10605641;27;20245;-90
2022/08/02 21:12:56;;;;;;;2.97;2.78;;;21.00;99.90;;;;;;10624163;27;20192;-90
2022/08/02 21:17:59;;;;;;;3.03;2.83;;;21.10;99.90;;;;;;10604629;27;20220;-90
2022/08/02 21:23:22;;;;;;;2.75;2.50;;;21.00;99.90;;;;;;10605022;27;20249;-89
2022/08/02 21:28:28;;;;;;;4.43;2.90;;;21.00;99.90;;;;;;10605499;27;20257;-89
2022/08/02 21:33:45;;;;;;;2.97;2.72;;;21.10;99.90;;;;;;10590070;27;20220;-89
2022/08/02 21:39:02;;;;;;;2.95;2.75;;;21.10;99.90;;;;;;10604901;28;20204;-89
2022/08/02 21:44:07;;;;;;;2.85;2.65;;;21.10;99.90;;;;;;10605422;28;20196;-90
2022/08/02 21:49:10;;;;;;;3.47;3.17;;;21.10;99.90;;;;;;10623669;28;20199;-90
2022/08/02 21:54:14;;;;;;;3.38;3.08;;;21.10;99.90;;;;;;10605400;27;20261;-90
2022/08/02 21:59:22;;;;;;;3.58;3.28;;;21.10;99.90;;;;;;10613438;27;20192;-90
2022/08/02 22:04:28;;;;;;;2.92;2.72;;;21.10;99.90;;;;;;10631419;27;20204;-89
2022/08/02 22:09:30;;;;;;;2.92;2.72;;;21.10;99.90;;;;;;10613716;27;20192;-90
2022/08/02 22:14:49;;;;;;;3.08;2.88;;;21.10;99.90;;;;;;10612642;27;20632;-89
2022/08/02 22:20:14;;;;;;;3.03;2.83;;;21.10;99.90;;;;;;10630867;27;20192;-90
2022/08/02 22:25:22;;;;;;;3.97;3.13;;;21.10;99.90;;;;;;10630918;27;20533;-89
2022/08/02 22:30:39;;;;;;;3.00;2.80;;;21.10;99.90;;;;;;10611871;27;20203;-89
2022/08/02 22:35:42;;;;;;;3.40;3.10;;;21.00;99.90;;;;;;10611986;27;20220;-89
2022/08/02 22:40:47;;;;;;;3.63;3.33;;;21.00;99.90;;;;;;10611172;27;20729;-89
2022/08/02 22:45:49;;;;;;;3.47;3.17;;;21.00;99.90;;;;;;10612000;27;20192;-89
2022/08/02 22:50:52;;;;;;;3.20;3.00;;;21.00;99.90;;;;;;10629668;27;20602;-89
2022/08/02 22:55:55;;;;;;;3.35;3.05;;;21.00;99.90;;;;;;10611189;27;20577;-89
2022/08/02 23:00:58;;;;;;;3.20;2.90;;;21.00;99.90;;;;;;10630057;27;20221;-89
2022/08/02 23:06:01;;;;;;;3.47;3.17;;;21.00;99.90;;;;;;10611069;27;20192;-89
2022/08/02 23:11:04;;;;;;;3.03;2.83;;;20.90;99.90;;;;;;10609996;27;20574;-89
2022/08/02 23:21:31;;;;;;;3.88;3.58;;;21.00;99.90;;;;;;10628436;27;20241;-89
2022/08/02 23:26:53;;;;;;;3.75;3.45;;;20.90;99.90;;;;;;10628259;27;20188;-89
2022/08/02 23:31:56;;;;;;;3.50;3.10;;;20.90;99.90;;;;;;10592090;27;20289;-89
2022/08/02 23:37:02;;;;;;;3.28;3.08;;;20.90;99.90;;;;;;10610227;27;20220;-89
2022/08/02 23:42:05;;;;;;;3.75;3.38;;;20.90;99.90;;;;;;10627568;27;20192;-89
2022/08/02 23:47:09;;;;;;;2.85;2.65;;;20.90;99.90;;;;;;10627259;27;20204;-90
2022/08/02 23:52:12;;;;;;;3.38;3.17;;;20.90;99.90;;;;;;10627298;27;20244;-89
2022/08/02 23:57:15;;;;;;;3.50;3.13;;;20.90;99.90;;;;;;10626770;27;20763;-90
